Flight Track Log - Related Links

Times and Time Zones

All times are in EDT time to prevent confusion due to time zone crossing. See the DLH2475 flight status page for this flight to view local times or setup timezone preferences in your user account.

Time Position Orientation Groundspeed Altitude Reporting Facility
EDT Latitude Longitude Course Direction KTS MPH feet Rate Location/Type
Sat 08:34:32 AM 51.4609 -0.3735 107° East  Level Estimated
Sat 08:35:32 AM 51.4296 -0.2089 107° East  Level Estimated
Sat 08:36:32 AM 51.3981 -0.0446 107° East  Level Estimated
Sat 08:37:32 AM 51.3663 0.1195 107° East  Level Estimated
Sat 08:38:32 AM 51.3343 0.2834 107° East  Level Estimated
Sat 08:39:32 AM 51.3021 0.4471 108° East  Level Estimated
Sat 08:40:32 AM 51.2697 0.6105 108° East  Level Estimated
Sat 08:41:32 AM 51.2370 0.7737 108° East  Level Estimated
Sat 08:42:32 AM 51.2041 0.9367 108° East  Level Estimated
Sat 08:43:32 AM 51.1710 1.0994 108° East  Level Estimated
Sat 08:44:32 AM 51.1376 1.2619 108° East  Level Estimated
Sat 08:45:32 AM 51.1040 1.4242 108° East  Level Estimated
Sat 08:46:32 AM 51.0702 1.5862 108° East  Level Estimated
Sat 08:47:32 AM 51.0362 1.7480 109° East  Level Estimated
Sat 08:48:32 AM 51.0020 1.9096 109° East  Level Estimated
Sat 08:49:32 AM 50.9675 2.0709 109° East  Level Estimated
Sat 08:50:32 AM 50.9328 2.2320 109° East  Level Estimated
Sat 08:51:32 AM 50.8979 2.3928 109° East  Level Estimated
Sat 08:52:32 AM 50.8628 2.5534 109° East  Level Estimated
Sat 08:53:32 AM 50.8274 2.7137 109° East  Level Estimated
Sat 08:54:32 AM 50.7919 2.8739 109° East  Level Estimated
Sat 08:55:32 AM 50.7561 3.0337 110° East  Level Estimated
Sat 08:56:32 AM 50.7201 3.1933 110° East  Level Estimated
Sat 08:57:32 AM 50.6838 3.3527 110° East  Level Estimated
Sat 08:58:32 AM 50.6474 3.5118 110° East  Level Estimated
Sat 08:59:32 AM 50.6107 3.6707 110° East  Level Estimated
Sat 09:00:32 AM 50.5738 3.8293 110° East  Level Estimated
Sat 09:01:32 AM 50.5367 3.9877 110° East  Level Estimated
Sat 09:02:32 AM 50.4994 4.1459 110° East  Level Estimated
Sat 09:03:32 AM 50.4619 4.3037 111° Southeast  Level Estimated
Sat 09:04:32 AM 50.4242 4.4614 111° Southeast  Level Estimated
Sat 09:05:32 AM 50.3862 4.6188 111° Southeast  Level Estimated
Sat 09:06:32 AM 50.3481 4.7759 111° Southeast  Level Estimated
Sat 09:07:32 AM 50.3097 4.9328 111° Southeast  Level Estimated
Sat 09:08:32 AM 50.2711 5.0894 111° Southeast  Level Estimated
Sat 09:09:32 AM 50.2323 5.2457 111° Southeast  Level Estimated
Sat 09:10:32 AM 50.1933 5.4019 111° Southeast  Level Estimated
Sat 09:11:32 AM 50.1541 5.5577 112° Southeast  Level Estimated
Sat 09:12:32 AM 50.1147 5.7133 112° Southeast  Level Estimated
Sat 09:13:32 AM 50.0751 5.8686 112° Southeast  Level Estimated
Sat 09:14:32 AM 50.0353 6.0237 112° Southeast  Level Estimated
Sat 09:15:32 AM 49.9952 6.1786 112° Southeast  Level Estimated
Sat 09:16:32 AM 49.9550 6.3331 112° Southeast  Level Estimated
Sat 09:17:32 AM 49.9145 6.4874 112° Southeast  Level Estimated
Sat 09:18:32 AM 49.8739 6.6415 112° Southeast  Level Estimated
Sat 09:19:32 AM 49.8330 6.7953 112° Southeast  Level Estimated
Sat 09:20:32 AM 49.7920 6.9488 113° Southeast  Level Estimated
Sat 09:21:32 AM 49.7507 7.1021 113° Southeast  Level Estimated
Sat 09:22:32 AM 49.7092 7.2551 113° Southeast  Level Estimated
Sat 09:23:32 AM 49.6676 7.4078 113° Southeast  Level Estimated
Sat 09:24:32 AM 49.6257 7.5603 113° Southeast  Level Estimated
Sat 09:25:32 AM 49.5836 7.7125 113° Southeast  Level Estimated
Sat 09:26:32 AM 49.5414 7.8645 113° Southeast  Level Estimated
Sat 09:27:32 AM 49.4989 8.0162 113° Southeast  Level Estimated
Sat 09:28:32 AM 49.4563 8.1676 113° Southeast  Level Estimated
Sat 09:29:32 AM 49.4134 8.3188 114° Southeast  Level Estimated
Sat 09:30:32 AM 49.3703 8.4697 114° Southeast  Level Estimated
Sat 09:31:32 AM 49.3271 8.6203 114° Southeast  Level Estimated
Sat 09:32:32 AM 49.2807 8.7809 114° Southeast  Level Estimated
Sat 09:33:32 AM 49.2341 8.9411 114° Southeast  Level Estimated
Sat 09:34:32 AM 49.1873 9.1010 114° Southeast  Level Estimated
Sat 09:35:32 AM 49.1402 9.2606 114° Southeast  Level Estimated
Sat 09:36:32 AM 49.0929 9.4199 114° Southeast  Level Estimated
Sat 09:37:32 AM 49.0454 9.5789 115° Southeast  Level Estimated
Sat 09:38:32 AM 48.9977 9.7377 115° Southeast  Level Estimated
Sat 09:39:32 AM 48.9498 9.8961 115° Southeast  Level Estimated
Sat 09:40:32 AM 48.9017 10.0542 115° Southeast  Level Estimated
Sat 09:41:32 AM 48.8533 10.2120 115° Southeast  Level Estimated
Sat 09:42:32 AM 48.8047 10.3694 115° Southeast  Level Estimated
Sat 09:43:32 AM 48.7560 10.5266 115° Southeast  Level Estimated
Sat 09:44:32 AM 48.7070 10.6835 115° Southeast  Level Estimated
Sat 09:45:32 AM 48.6577 10.8401 116° Southeast  Level Estimated
Sat 09:46:32 AM 48.6083 10.9963 116° Southeast  Level Estimated
Sat 09:47:32 AM 48.5587 11.1523 116° Southeast  Level Estimated
Sat 09:48:32 AM 48.5088 11.3079 116° Southeast  Level Estimated
Sat 09:49:32 AM 48.4588 11.4633 116° Southeast  Level Estimated
Sat 09:50:32 AM 48.4085 11.6183 116° Southeast  Level Estimated
Sat 09:51:32 AM 48.3581 11.7731 116° Southeast  Level Estimated
Sat 09:52:32 AM 48.3074 11.9275 296° West  Level Estimated
Sat 09:53:32 AM 48.3581 11.7731 116° Southeast  Level Estimated
Sat 09:54:32 AM 48.3074 11.9275 296° West  Level Estimated
Sat 09:55:32 AM 48.3581 11.7731 116° Southeast  Level Estimated
Sat 09:56:32 AM 48.3074 11.9275 296° West  Level Estimated
Sat 09:57:32 AM 48.3581 11.7731 116° Southeast  Level Estimated
Sat 09:58:32 AM 48.3074 11.9275 296° West  Level Estimated
Sat 09:59:32 AM 48.3581 11.7731 296° West  Level Estimated

Login

Don't have an account? Register now (free) for customized features, flight alerts, and more!